Aviosuperficie Chiasiellis

IT-0405 · Friuli Venezia Giulia, 意大利

罗盘
风向 的 风向 080° Aviosuperficie Chiasiellis 16/34
风: 8 kt, 3 beaufort

1 kt

8 kt
改变
0 2.000 4.000 6.000 8.000 10.000
SCT 5.000 ft
BKN 6.000 ft
SPECI LIPA 031255Z 08008KT 9999 SCT050 BKN060 10/08 Q1017 RMK OVC VIS MIN 9999 WIND THR05 /////KT WIND THR23 /////KT A3004 BLU

METAR Aviosuperficie Chiasiellis - IT-0405

Aviosuperficie Chiasiellis是,意大利中的小机场。 该机场有一条跑道: 16/34. 该领域的国际民航组织标志是IT-0405.

这份报告是针对2022年12月3日 13:55, 当地时间在Aviano Air Base进行的。

机场观察

风向为080°,速度为8 kt。

可见度为10 km 或者更多。

有疏云,零星散落的云朵在5.000 ft的高度 和 碎云在6.000 ft的高度。 破损或更高的上限为6.000 ft。

温度为10 °C,阵风为7 °C。 露点为8 °C,相对湿度为88%。 海平面上的气压为1017 hPa (QNH)。

白天

今天,太阳从07:30升起,在16:23降落。 这适用于Aviosuperficie Chiasiellis,世界夏令时可能有所不同。 当地时间与世界标准时间之间的时差为+1 小时。 当前,没有夏令时有效。

公司介绍

我们没有关于这个机场的公司信息。

体会

到Vliegles.nl去找飞行课程,跳伞和其他飞行体验。 浏览页面,了解Aviosuperficie Chiasiellis附近所有可用的活动。 你也可以使用搜索功能来寻找你所在地附近的特定飞行课程、跳伞或其他飞行体验。

跑道

Id 标题 侧风 逆风 侧风 %
16/34 160°-340° 8 kt 1 kt 98 %

逆风成分最大的方向会被突出显示,并用于横风计算。 这并不一定意味着这个方向在使用。

乌云

5.000 ft SCT 疏云,零星散落的云朵
6.000 ft BKN 碎云

温度 & 天气

温度 10 °C
露点 8 °C
相对湿度 88%
风寒 7 °C
Kp-index 1 (0-9)

评论

OVC VIS MIN 9999 WIND THR05 /////KT WIND THR23 /////KT A3004

白天

日出
07:33
中午
11:59
日落
16:25 (2:12)

小工具

你想在你的网站上有一个关于Aviosuperficie Chiasiellis的当前航空天气(METAR)的小部件吗?

显示HTML代码

我们和第三方通过cookies跟踪您在我们网站上的互联网行为。如果你继续,我们认为你同意我们的饼干政策